Hlavní strana
METAR-TAF:

METAR-TAF

Letiště :

Dakar, Senegal

zeměpisná šířka: 14-44N, zeměpisná délka: 017-30W, výška: 27 m

Aktuální stav počasí

Zpráva byla vytvořena před 29 minutami, v 00:00 UTC
Severovýchodní vítr 14 kt
Teplota 26°C
Vlhkost vzduchu 45%
Tlak 1011 hPa
Viditelnost: 2000 m
rozsáhlý prach

METAR: GOOY 260000Z 04014KT 2000 DU NSC 26/13 Q1011

Čas: 00:29 (00:29 UTC)

Předpověď počasí

Zpráva byla vytvořena před 1 hodinou a 15 minutami, v 23:14 UTC
Předpověď platná od 26 v 00 UTC do 27 v 06 UTC
Severovýchodní vítr 10 kt
Viditelnost: 2000 m
rozsáhlý prach

TAF: GOOY 252314Z 2600/2706 05010KT 2000 DU NSC

Stav a předpovědi počasí z více než 4 000 letišť (zprávy METAR a TAF).

Červené a žluté tečky na mapě představují dostupné meteorologické stanice.

Když kurzor umístíte na tečku, zobrazí se název stanice.

Pak kliknutím zobrazíte stav a předpověď počasí.

Chcete-li změnit mapu, kliknutím na zelené tlačítko se znaménkem +mapu přiblížíte, kliknutím na zelené tlačítko se znaménkem – mapu oddálíte a kliknutím na zelené šipky přejdete na sousední mapy.


METAR-TAF: